Terminal Aerodrome Forecast
Issued by NWS

Home | Current Version | Previous Version | Text Only | Print | Product List | Glossary On
Versions: 1 2 3 4 5 6 7 8 9 10 11 12 13 14 15 16 17 18 19 20 21 22 23 24 25 26 27 28 29 30 31 32 33 34 35 36 37 38 39 40 41 42 43 44 45 46 47 48 49 50
507
FTUS43 KMKX 291120
TAFENW
TAF
KENW 291120Z 2912/3012 05006KT 1/4SM FG OVC002
     FM291400 06008KT 1/2SM FG OVC003
     FM291500 07009KT 2SM BR OVC006
     FM291900 06011KT P6SM OVC100
     FM300000 05012G20KT 6SM -RA OVC080
     FM300600 08015G25KT 4SM RA OVC030
     FM301100 08016G28KT 3SM RA OVC010=

USA.gov is the U.S. government's official web portal to all federal, state and local government web resources and services.